createdAt,value
2018-09-26T00:01:45.715Z,98705.65
2018-09-26T00:04:13.185Z,98713.00
2018-09-26T00:06:40.582Z,98708.81
2018-09-26T00:09:08.085Z,98713.97
2018-09-26T00:11:35.486Z,98715.39
2018-09-26T00:14:02.897Z,98714.23
2018-09-26T00:16:30.322Z,98719.77
2018-09-26T00:18:57.804Z,98721.42
2018-09-26T00:21:25.223Z,98730.52
2018-09-26T00:23:52.655Z,98727.72
2018-09-26T00:26:20.133Z,98727.79
2018-09-26T00:28:47.627Z,98726.20
2018-09-26T00:31:15.085Z,98727.22
2018-09-26T00:33:42.506Z,98727.70
2018-09-26T00:36:10.595Z,98730.16
2018-09-26T00:38:37.917Z,98727.70
2018-09-26T00:41:05.387Z,98735.66
2018-09-26T00:43:33.011Z,98734.19
2018-09-26T00:46:00.475Z,98737.03
2018-09-26T00:48:28.012Z,98738.72
2018-09-26T00:50:55.464Z,98736.82
2018-09-26T00:53:23.472Z,98745.13
2018-09-26T00:55:50.908Z,98749.19
2018-09-26T00:58:18.385Z,98744.45
2018-09-26T01:00:45.805Z,98743.04
2018-09-26T01:03:13.281Z,98741.52
2018-09-26T01:05:40.737Z,98746.67
2018-09-26T01:08:08.211Z,98753.84
2018-09-26T01:10:35.680Z,98745.42
2018-09-26T01:13:03.975Z,98734.94
2018-09-26T01:15:31.663Z,98746.05
2018-09-26T01:17:59.084Z,98737.31
2018-09-26T01:20:26.502Z,98737.15
2018-09-26T01:22:53.943Z,98728.73
2018-09-26T01:25:21.340Z,98727.05
2018-09-26T01:27:48.876Z,98732.98
2018-09-26T01:30:16.321Z,98727.95
2018-09-26T01:32:43.726Z,98726.20
2018-09-26T01:35:11.228Z,98725.58
2018-09-26T01:37:38.688Z,98725.63
2018-09-26T01:40:12.729Z,98722.67
2018-09-26T01:42:40.355Z,98721.63
2018-09-26T01:45:07.782Z,98720.58
2018-09-26T01:47:35.279Z,98719.27
2018-09-26T01:50:02.718Z,98712.48
2018-09-26T01:52:30.152Z,98716.06
2018-09-26T01:54:57.649Z,98712.53
2018-09-26T01:57:25.139Z,98715.52
2018-09-26T01:59:52.650Z,98708.70
2018-09-26T02:02:20.054Z,98713.53
2018-09-26T02:04:47.526Z,98712.17
2018-09-26T02:07:14.950Z,98707.48
2018-09-26T02:09:42.501Z,98699.48
2018-09-26T02:12:09.960Z,98700.97
2018-09-26T02:14:38.221Z,98695.66
2018-09-26T02:17:05.836Z,98700.39
2018-09-26T02:19:33.278Z,98698.28
2018-09-26T02:22:00.711Z,98697.02
2018-09-26T02:24:28.178Z,98693.16
2018-09-26T02:26:55.614Z,98691.39
2018-09-26T02:29:23.063Z,98697.02
2018-09-26T02:31:50.518Z,98684.06
2018-09-26T02:34:18.085Z,98686.02
2018-09-26T02:36:45.704Z,98686.96
2018-09-26T02:39:13.150Z,98684.39
2018-09-26T02:41:40.666Z,98692.12
2018-09-26T02:44:08.232Z,98697.53
2018-09-26T02:46:35.679Z,98696.49
2018-09-26T02:49:03.092Z,98698.08
2018-09-26T02:51:30.666Z,98691.27
2018-09-26T02:53:58.145Z,98691.59
2018-09-26T02:56:25.579Z,98698.07
2018-09-26T02:58:52.993Z,98695.11
2018-09-26T03:01:20.486Z,98693.39
2018-09-26T03:03:48.026Z,98698.17
2018-09-26T03:06:15.524Z,98695.17
2018-09-26T03:08:42.968Z,98701.84
2018-09-26T03:11:10.425Z,98699.42
2018-09-26T03:13:37.873Z,98700.16
2018-09-26T03:16:05.402Z,98703.03
2018-09-26T03:18:33.047Z,98703.83
2018-09-26T03:21:01.100Z,98698.46
2018-09-26T03:23:28.531Z,98697.63
2018-09-26T03:25:55.959Z,98702.50
2018-09-26T03:28:23.430Z,98700.09
2018-09-26T03:30:50.947Z,98695.94
2018-09-26T03:33:18.379Z,98700.13
2018-09-26T03:35:45.782Z,98703.59
2018-09-26T03:38:13.297Z,98701.73
2018-09-26T03:40:41.638Z,98709.15
2018-09-26T03:43:09.102Z,98704.78
2018-09-26T03:45:36.514Z,98708.67
2018-09-26T03:48:04.459Z,98713.50
2018-09-26T03:50:32.135Z,98723.98
2018-09-26T03:52:59.605Z,98721.52
2018-09-26T03:55:27.139Z,98717.23
2018-09-26T03:57:54.617Z,98718.45
2018-09-26T04:00:22.012Z,98707.50
2018-09-26T04:02:49.566Z,98697.41
2018-09-26T04:05:17.028Z,98689.91
2018-09-26T04:07:44.441Z,98687.53
2018-09-26T04:10:12.020Z,98686.16
2018-09-26T04:12:39.598Z,98685.66
2018-09-26T04:15:08.144Z,98678.62
2018-09-26T04:17:35.577Z,98670.70
2018-09-26T04:20:03.022Z,98676.23
2018-09-26T04:22:30.695Z,98670.91
2018-09-26T04:24:58.246Z,98678.27
2018-09-26T04:27:25.790Z,98676.90
2018-09-26T04:29:53.278Z,98682.37
2018-09-26T04:32:20.782Z,98686.38
2018-09-26T04:34:48.251Z,98686.61
2018-09-26T04:37:15.660Z,98679.53
2018-09-26T04:39:43.147Z,98688.25
2018-09-26T04:42:10.636Z,98688.68
2018-09-26T04:44:38.088Z,98686.04
2018-09-26T04:47:05.490Z,98687.49
2018-09-26T04:49:32.981Z,98690.81
2018-09-26T04:52:00.446Z,98691.80
2018-09-26T04:54:27.956Z,98693.57
2018-09-26T04:56:55.356Z,98696.37
2018-09-26T04:59:22.789Z,98697.51
2018-09-26T05:01:50.279Z,98690.91
2018-09-26T05:04:17.690Z,98689.17
2018-09-26T05:06:45.154Z,98690.74
2018-09-26T05:09:12.612Z,98691.29
2018-09-26T05:11:40.087Z,98698.77
2018-09-26T05:14:07.624Z,98712.39
2018-09-26T05:16:35.060Z,98715.56
2018-09-26T05:19:02.458Z,98722.37
2018-09-26T05:21:30.562Z,98729.19
2018-09-26T05:23:57.993Z,98726.13
2018-09-26T05:26:25.438Z,98727.41
2018-09-26T05:28:52.880Z,98742.03
2018-09-26T05:31:20.542Z,98749.44
2018-09-26T05:33:47.990Z,98752.06
2018-09-26T05:36:15.466Z,98758.45
2018-09-26T05:38:42.951Z,98761.45
2018-09-26T05:41:10.395Z,98763.81
2018-09-26T05:43:37.792Z,98766.48
2018-09-26T05:46:05.307Z,98771.85
2018-09-26T05:48:32.705Z,98770.12
2018-09-26T05:51:00.450Z,98777.75
2018-09-26T05:53:27.903Z,98779.97
2018-09-26T05:55:55.406Z,98783.55
2018-09-26T05:58:22.909Z,98794.45
2018-09-26T06:00:50.479Z,98796.36
2018-09-26T06:03:17.923Z,98793.32
2018-09-26T06:05:45.486Z,98803.13
2018-09-26T06:08:13.417Z,98813.02
2018-09-26T06:10:41.082Z,98810.33
2018-09-26T06:13:08.662Z,98817.61
2018-09-26T06:15:36.199Z,98820.73
2018-09-26T06:18:04.075Z,98830.90
2018-09-26T06:20:31.535Z,98832.70
2018-09-26T06:22:58.980Z,98832.84
2018-09-26T06:25:26.387Z,98831.07
2018-09-26T06:27:53.902Z,98832.85
2018-09-26T06:30:21.338Z,98832.86
2018-09-26T06:32:48.761Z,98839.86
2018-09-26T06:35:16.364Z,98839.84
2018-09-26T06:37:44.199Z,98836.30
2018-09-26T06:40:11.652Z,98842.75
2018-09-26T06:42:39.210Z,98841.13
2018-09-26T06:45:06.700Z,98842.38
2018-09-26T06:47:34.334Z,98845.56
2018-09-26T06:50:01.847Z,98842.33
2018-09-26T06:52:29.940Z,98838.62
2018-09-26T06:54:57.721Z,98831.72
2018-09-26T06:57:25.528Z,98837.97
2018-09-26T06:59:52.970Z,98839.34
2018-09-26T07:02:20.482Z,98847.69
2018-09-26T07:04:48.114Z,98841.63
2018-09-26T07:07:15.850Z,98839.14
2018-09-26T07:09:43.469Z,98843.70
2018-09-26T07:12:11.006Z,98839.55
2018-09-26T07:14:39.296Z,98833.23
2018-09-26T07:17:06.875Z,98837.66
2018-09-26T07:19:34.367Z,98836.55
2018-09-26T07:22:01.934Z,98837.55
2018-09-26T07:24:29.489Z,98845.67
2018-09-26T07:26:57.063Z,98845.69
2018-09-26T07:29:25.122Z,98849.73
2018-09-26T07:31:52.666Z,98852.11
2018-09-26T07:34:20.875Z,98856.98
2018-09-26T07:36:47.923Z,98874.08
2018-09-26T07:39:14.921Z,98865.59
2018-09-26T07:41:43.078Z,98874.41
2018-09-26T07:44:10.033Z,98873.61
2018-09-26T07:46:38.659Z,98876.50
2018-09-26T07:49:05.726Z,98889.94
2018-09-26T07:51:33.140Z,98889.53
2018-09-26T07:54:00.254Z,98886.09
2018-09-26T07:56:27.257Z,98889.70
2018-09-26T07:58:54.346Z,98893.25
2018-09-26T08:01:21.381Z,98895.08
2018-09-26T08:03:48.753Z,98893.84
2018-09-26T08:06:16.160Z,98909.85
2018-09-26T08:08:43.191Z,98905.75
2018-09-26T08:11:10.601Z,98909.06
2018-09-26T08:13:37.783Z,98911.19
2018-09-26T08:16:04.790Z,98904.72
2018-09-26T08:18:31.838Z,98900.88
2018-09-26T08:20:58.911Z,98912.81
2018-09-26T08:23:25.928Z,98907.56
2018-09-26T08:25:52.986Z,98907.04
2018-09-26T08:28:19.978Z,98905.41
2018-09-26T08:30:47.089Z,98910.13
2018-09-26T08:33:14.563Z,98913.26
2018-09-26T08:35:41.980Z,98911.78
2018-09-26T08:38:09.554Z,98908.76
2018-09-26T08:40:37.097Z,98911.50
2018-09-26T08:43:05.267Z,98910.86
2018-09-26T08:45:32.721Z,98913.08
2018-09-26T08:48:00.299Z,98905.25
2018-09-26T08:50:27.809Z,98904.17
2018-09-26T08:52:55.208Z,98903.08
2018-09-26T08:55:22.703Z,98894.33
2018-09-26T08:57:50.980Z,98907.84
2018-09-26T09:00:17.980Z,98903.92
2018-09-26T09:02:45.423Z,98895.30
2018-09-26T09:05:13.919Z,98893.63
2018-09-26T09:07:41.429Z,98890.55
2018-09-26T09:10:08.898Z,98895.60
2018-09-26T09:12:35.917Z,98903.36
2018-09-26T09:15:02.969Z,98898.96
2018-09-26T09:17:30.038Z,98905.14
2018-09-26T09:19:57.266Z,98899.45
2018-09-26T09:22:24.440Z,98897.23
2018-09-26T09:24:51.854Z,98896.30
2018-09-26T09:27:19.300Z,98901.92
2018-09-26T09:29:46.974Z,98895.34
2018-09-26T09:32:14.419Z,98898.66
2018-09-26T09:34:41.894Z,98898.94
2018-09-26T09:37:09.489Z,98901.11
2018-09-26T09:39:37.063Z,98902.73
2018-09-26T09:42:04.558Z,98901.71
2018-09-26T09:44:32.663Z,98894.29
2018-09-26T09:47:00.182Z,98892.82
2018-09-26T09:49:27.709Z,98895.07
2018-09-26T09:51:55.370Z,98899.80
2018-09-26T09:54:22.891Z,98900.27
2018-09-26T09:56:50.356Z,98897.95
2018-09-26T09:59:17.982Z,98900.27
2018-09-26T10:01:45.436Z,98885.60
2018-09-26T10:04:13.070Z,98882.70
2018-09-26T10:06:43.142Z,98884.81
2018-09-26T10:09:10.674Z,98883.48
2018-09-26T10:11:38.160Z,98879.19
2018-09-26T10:14:05.813Z,98876.70
2018-09-26T10:16:33.215Z,98886.16
2018-09-26T10:19:01.817Z,98881.73
2018-09-26T10:21:29.357Z,98878.34
2018-09-26T10:23:57.043Z,98882.23
2018-09-26T10:26:24.614Z,98880.22
2018-09-26T10:28:52.515Z,98879.36
2018-09-26T10:31:20.212Z,98870.89
2018-09-26T10:33:47.715Z,98875.99
2018-09-26T10:36:15.325Z,98874.97
2018-09-26T10:38:42.851Z,98874.08
2018-09-26T10:41:10.093Z,98877.15
2018-09-26T10:43:37.332Z,98866.49
2018-09-26T10:46:04.844Z,98869.29
2018-09-26T10:48:32.355Z,98864.99
2018-09-26T10:50:59.920Z,98857.23
2018-09-26T10:53:27.492Z,98849.24
2018-09-26T10:55:54.459Z,98844.51
2018-09-26T10:58:21.913Z,98833.22
2018-09-26T11:00:49.047Z,98828.55
2018-09-26T11:03:16.160Z,98825.45
2018-09-26T11:05:43.566Z,98820.24
2018-09-26T11:08:10.800Z,98816.27
2018-09-26T11:10:37.828Z,98812.77
2018-09-26T11:13:04.908Z,98811.13
2018-09-26T11:15:31.986Z,98811.62
2018-09-26T11:18:00.391Z,98814.13
2018-09-26T11:20:27.580Z,98809.23
2018-09-26T11:22:54.935Z,98797.55
2018-09-26T11:25:22.551Z,98799.22
2018-09-26T11:27:49.682Z,98799.23
2018-09-26T11:30:16.737Z,98781.87
2018-09-26T11:32:43.786Z,98774.78
2018-09-26T11:35:11.036Z,98774.27
2018-09-26T11:37:38.088Z,98767.44
2018-09-26T11:40:05.244Z,98765.65
2018-09-26T11:42:32.502Z,98762.48
2018-09-26T11:44:59.513Z,98753.75
2018-09-26T11:47:26.565Z,98755.02
2018-09-26T11:49:53.649Z,98745.90
2018-09-26T11:52:20.775Z,98744.92
2018-09-26T11:54:48.792Z,98746.61
2018-09-26T11:57:15.814Z,98740.53
2018-09-26T11:59:43.031Z,98729.74
2018-09-26T12:02:10.031Z,98721.64
2018-09-26T12:04:37.024Z,98726.34
2018-09-26T12:07:04.140Z,98712.50
2018-09-26T12:09:31.234Z,98701.80
2018-09-26T12:14:44.444Z,98700.66
2018-09-26T12:17:12.533Z,98699.45
2018-09-26T12:19:39.640Z,98688.89
2018-09-26T12:22:06.901Z,98686.26
2018-09-26T12:24:33.900Z,98680.98
2018-09-26T12:29:42.396Z,98669.23
2018-09-26T12:32:09.421Z,98665.52
2018-09-26T12:34:37.912Z,98658.05
2018-09-26T12:37:05.380Z,98657.81
2018-09-26T12:39:32.871Z,98654.89
2018-09-26T12:42:01.051Z,98653.52
2018-09-26T12:44:28.746Z,98649.90
2018-09-26T12:46:56.306Z,98650.45
2018-09-26T12:49:24.016Z,98644.79
2018-09-26T12:51:51.506Z,98647.34
2018-09-26T12:54:19.044Z,98639.44
2018-09-26T12:56:46.496Z,98646.00
2018-09-26T12:59:14.076Z,98649.95
2018-09-26T13:01:41.161Z,98640.25
2018-09-26T13:04:09.032Z,98634.09
2018-09-26T13:06:36.032Z,98629.59
2018-09-26T13:09:03.633Z,98630.25
2018-09-26T13:11:31.211Z,98618.55
2018-09-26T13:13:58.739Z,98619.66
2018-09-26T13:16:26.206Z,98619.41
2018-09-26T13:18:53.604Z,98618.23
2018-09-26T13:21:21.197Z,98610.85
2018-09-26T13:23:48.651Z,98608.20
2018-09-26T13:26:16.323Z,98607.78
2018-09-26T13:28:43.787Z,98602.22
2018-09-26T13:31:11.253Z,98593.09
2018-09-26T13:33:39.104Z,98584.67
2018-09-26T13:36:06.703Z,98589.41
2018-09-26T13:38:34.174Z,98591.30
2018-09-26T13:41:02.080Z,98589.25
2018-09-26T13:43:29.489Z,98584.20
2018-09-26T13:45:57.077Z,98593.42
2018-09-26T13:48:24.061Z,98588.67
2018-09-26T13:50:51.637Z,98584.97
2018-09-26T13:53:19.153Z,98578.55
2018-09-26T13:55:46.611Z,98584.48
2018-09-26T13:58:13.636Z,98583.13
2018-09-26T14:00:41.052Z,98578.59
2018-09-26T14:03:08.658Z,98571.78
2018-09-26T14:05:35.873Z,98571.42
2018-09-26T14:08:03.490Z,98567.66
2018-09-26T14:10:30.991Z,98562.98
2018-09-26T14:12:58.446Z,98561.05
2018-09-26T14:15:25.898Z,98558.95
2018-09-26T14:17:53.559Z,98560.58
2018-09-26T14:20:20.808Z,98557.23
2018-09-26T14:22:47.986Z,98555.30
2018-09-26T14:25:14.956Z,98556.83
2018-09-26T14:27:42.157Z,98559.52
2018-09-26T14:30:09.190Z,98554.09
2018-09-26T14:32:37.498Z,98554.54
2018-09-26T14:35:04.478Z,98549.77
2018-09-26T14:37:31.478Z,98560.45
2018-09-26T14:39:59.138Z,98558.48
2018-09-26T14:42:26.701Z,98548.53
2018-09-26T14:44:54.510Z,98551.50
2018-09-26T14:47:21.655Z,98551.05
2018-09-26T14:49:49.276Z,98548.59
2018-09-26T14:52:16.851Z,98548.80
2018-09-26T14:54:44.489Z,98549.96
2018-09-26T14:57:11.987Z,98545.10
2018-09-26T14:59:39.417Z,98551.41
2018-09-26T15:02:07.006Z,98551.01
2018-09-26T15:04:34.953Z,98548.93
2018-09-26T15:07:02.442Z,98559.31
2018-09-26T15:09:29.896Z,98560.06
2018-09-26T15:11:57.589Z,98552.43
2018-09-26T15:14:26.037Z,98555.11
2018-09-26T15:16:53.562Z,98553.84
2018-09-26T15:19:21.564Z,98552.15
2018-09-26T15:21:49.357Z,98551.00
2018-09-26T15:24:16.979Z,98542.91
2018-09-26T15:26:44.903Z,98540.77
2018-09-26T15:29:12.374Z,98543.73
2018-09-26T15:31:39.875Z,98546.09
2018-09-26T15:34:07.405Z,98544.53
2018-09-26T15:36:34.857Z,98544.25
2018-09-26T15:39:04.372Z,98543.47
2018-09-26T15:41:31.874Z,98541.02
2018-09-26T15:43:59.389Z,98538.27
2018-09-26T15:46:26.915Z,98536.75
2018-09-26T15:48:54.533Z,98544.03
2018-09-26T15:51:21.983Z,98552.27
2018-09-26T15:53:50.499Z,98545.33
2018-09-26T15:56:18.075Z,98548.70
2018-09-26T15:58:45.679Z,98543.05
2018-09-26T16:01:13.393Z,98545.86
2018-09-26T16:03:40.823Z,98546.33
2018-09-26T16:06:08.436Z,98542.09
2018-09-26T16:08:35.926Z,98550.39
2018-09-26T16:11:03.341Z,98547.14
2018-09-26T16:13:30.999Z,98542.86
2018-09-26T16:15:58.552Z,98547.53
2018-09-26T16:18:26.081Z,98546.63
2018-09-26T16:20:53.563Z,98551.04
2018-09-26T16:23:20.975Z,98549.95
2018-09-26T16:25:48.800Z,98546.52
2018-09-26T16:28:17.081Z,98549.08
2018-09-26T16:30:44.562Z,98547.43
2018-09-26T16:33:12.310Z,98549.16
2018-09-26T16:35:40.455Z,98548.60
2018-09-26T16:38:08.235Z,98550.75
2018-09-26T16:40:35.948Z,98545.14
2018-09-26T16:43:03.403Z,98548.20
2018-09-26T16:45:30.884Z,98553.87
2018-09-26T16:48:00.159Z,98559.26
2018-09-26T16:50:27.781Z,98554.98
2018-09-26T16:52:55.289Z,98560.75
2018-09-26T16:55:22.852Z,98569.19
2018-09-26T16:57:50.416Z,98563.36
2018-09-26T17:00:18.132Z,98562.11
2018-09-26T17:02:45.784Z,98567.91
2018-09-26T17:05:14.205Z,98578.72
2018-09-26T17:07:41.652Z,98568.95
2018-09-26T17:10:09.992Z,98567.70
2018-09-26T17:12:37.774Z,98571.45
2018-09-26T17:15:05.439Z,98576.27
2018-09-26T17:17:32.471Z,98570.82
2018-09-26T17:19:59.829Z,98579.55
2018-09-26T17:22:26.881Z,98577.55
2018-09-26T17:24:54.388Z,98580.08
2018-09-26T17:27:22.064Z,98578.26
2018-09-26T17:29:49.609Z,98576.80
2018-09-26T17:32:17.181Z,98583.20
2018-09-26T17:34:44.903Z,98585.97
2018-09-26T17:37:12.326Z,98595.45
2018-09-26T17:42:13.608Z,98586.95
2018-09-26T17:44:41.191Z,98588.02
2018-09-26T17:47:08.951Z,98592.13
2018-09-26T17:49:36.419Z,98586.97
2018-09-26T17:52:03.891Z,98592.60
2018-09-26T17:54:31.279Z,98596.79
2018-09-26T17:56:58.766Z,98597.27
2018-09-26T17:59:26.248Z,98590.64
2018-09-26T18:01:53.705Z,98594.31
2018-09-26T18:04:21.544Z,98592.80
2018-09-26T18:06:49.230Z,98596.78
2018-09-26T18:09:16.775Z,98594.03
2018-09-26T18:11:44.327Z,98593.14
2018-09-26T18:14:11.852Z,98595.89
2018-09-26T18:16:39.542Z,98594.70
2018-09-26T18:19:07.058Z,98600.55
2018-09-26T18:21:34.061Z,98606.09
2018-09-26T18:24:01.890Z,98604.68
2018-09-26T18:26:29.384Z,98601.85
2018-09-26T18:28:57.080Z,98601.83
2018-09-26T18:31:24.896Z,98603.58
2018-09-26T18:33:52.412Z,98613.72
2018-09-26T18:36:19.925Z,98613.83
2018-09-26T18:38:47.437Z,98619.30
2018-09-26T18:41:14.838Z,98619.45
2018-09-26T18:43:42.420Z,98622.63
2018-09-26T18:46:10.000Z,98620.94
2018-09-26T18:48:37.462Z,98620.13
2018-09-26T18:51:04.994Z,98618.38
2018-09-26T18:53:32.452Z,98624.33
2018-09-26T18:56:00.103Z,98629.16
2018-09-26T18:58:27.715Z,98629.16
2018-09-26T19:00:55.466Z,98630.36
2018-09-26T19:03:23.566Z,98621.81
2018-09-26T19:05:51.118Z,98622.08
2018-09-26T19:08:18.624Z,98626.00
2018-09-26T19:10:46.131Z,98630.05
2018-09-26T19:13:13.676Z,98634.13
2018-09-26T19:15:41.541Z,98627.88
2018-09-26T19:18:09.097Z,98633.93
2018-09-26T19:20:36.550Z,98634.06
2018-09-26T19:23:04.071Z,98636.87
2018-09-26T19:25:31.571Z,98636.70
2018-09-26T19:27:59.085Z,98633.44
2018-09-26T19:30:26.718Z,98643.00
2018-09-26T19:32:54.185Z,98641.63
2018-09-26T19:35:21.644Z,98645.13
2018-09-26T19:37:49.119Z,98648.36
2018-09-26T19:40:16.755Z,98658.95
2018-09-26T19:42:44.238Z,98652.77
2018-09-26T19:45:12.127Z,98651.14
2018-09-26T19:47:39.837Z,98656.30
2018-09-26T19:50:07.489Z,98658.53
2018-09-26T19:52:34.982Z,98656.30
2018-09-26T19:55:02.525Z,98664.09
2018-09-26T19:57:30.022Z,98663.64
2018-09-26T19:59:57.567Z,98660.88
2018-09-26T20:02:25.045Z,98670.89
2018-09-26T20:04:52.623Z,98672.05
2018-09-26T20:07:20.055Z,98671.59
2018-09-26T20:09:47.631Z,98666.34
2018-09-26T20:12:15.043Z,98668.91
2018-09-26T20:14:42.909Z,98670.29
2018-09-26T20:17:10.429Z,98671.86
2018-09-26T20:19:38.684Z,98677.16
2018-09-26T20:22:06.307Z,98682.39
2018-09-26T20:24:33.722Z,98684.44
2018-09-26T20:27:01.320Z,98679.80
2018-09-26T20:29:28.787Z,98687.05
2018-09-26T20:31:56.237Z,98689.20
2018-09-26T20:34:23.921Z,98689.83
2018-09-26T20:36:51.612Z,98694.11
2018-09-26T20:39:19.188Z,98692.42
2018-09-26T20:41:46.812Z,98697.53
2018-09-26T20:44:14.257Z,98692.86
2018-09-26T20:46:41.704Z,98691.34
2018-09-26T20:49:09.145Z,98691.13
2018-09-26T20:51:36.956Z,98698.59
2018-09-26T20:54:04.374Z,98692.68
2018-09-26T20:56:31.825Z,98690.60
2018-09-26T20:58:59.388Z,98687.79
2018-09-26T21:01:26.988Z,98688.86
2018-09-26T21:03:54.449Z,98685.23
2018-09-26T21:06:21.937Z,98678.29
2018-09-26T21:08:50.748Z,98680.04
2018-09-26T21:11:18.230Z,98680.58
2018-09-26T21:13:45.675Z,98675.79
2018-09-26T21:16:13.142Z,98683.81
2018-09-26T21:18:40.769Z,98676.16
2018-09-26T21:21:08.217Z,98672.72
2018-09-26T21:23:35.744Z,98670.30
2018-09-26T21:26:03.232Z,98676.64
2018-09-26T21:28:30.752Z,98679.22
2018-09-26T21:30:58.272Z,98674.47
2018-09-26T21:33:25.826Z,98673.98
2018-09-26T21:35:53.439Z,98666.80
2018-09-26T21:38:20.917Z,98673.09
2018-09-26T21:40:48.664Z,98676.18
2018-09-26T21:43:16.219Z,98676.50
2018-09-26T21:45:43.662Z,98676.11
2018-09-26T21:48:11.125Z,98679.19
2018-09-26T21:50:38.540Z,98676.33
2018-09-26T21:53:05.979Z,98677.75
2018-09-26T21:55:33.577Z,98677.30
2018-09-26T21:58:01.030Z,98679.81
2018-09-26T22:00:28.560Z,98680.25
2018-09-26T22:02:56.046Z,98675.98
2018-09-26T22:05:23.453Z,98673.36
2018-09-26T22:07:51.027Z,98675.64
2018-09-26T22:10:18.599Z,98672.00
2018-09-26T22:12:46.042Z,98673.88
2018-09-26T22:15:13.512Z,98678.69
2018-09-26T22:17:40.989Z,98665.89
2018-09-26T22:20:08.453Z,98672.58
2018-09-26T22:22:35.986Z,98678.12
2018-09-26T22:25:03.553Z,98670.88
2018-09-26T22:27:31.002Z,98665.38
2018-09-26T22:29:58.464Z,98672.56
2018-09-26T22:32:25.942Z,98672.09
2018-09-26T22:34:54.340Z,98672.98
2018-09-26T22:37:22.002Z,98676.05
2018-09-26T22:39:49.667Z,98683.19
2018-09-26T22:42:17.136Z,98676.11
2018-09-26T22:44:44.588Z,98674.94
2018-09-26T22:47:12.060Z,98669.71
2018-09-26T22:49:39.530Z,98677.27
2018-09-26T22:52:07.081Z,98677.34
2018-09-26T22:54:34.495Z,98681.08
2018-09-26T22:57:02.719Z,98674.81
2018-09-26T22:59:30.232Z,98673.67
2018-09-26T23:01:57.685Z,98669.42
2018-09-26T23:04:25.428Z,98669.75
2018-09-26T23:06:52.863Z,98667.61
2018-09-26T23:09:20.325Z,98676.44
2018-09-26T23:11:47.788Z,98673.92
2018-09-26T23:14:15.258Z,98669.80
2018-09-26T23:16:42.745Z,98664.70
2018-09-26T23:19:10.177Z,98663.52
2018-09-26T23:21:37.664Z,98667.52
2018-09-26T23:24:05.316Z,98662.24
2018-09-26T23:26:32.766Z,98656.75
2018-09-26T23:29:00.233Z,98658.06
2018-09-26T23:31:27.721Z,98661.08
2018-09-26T23:33:55.683Z,98649.30
2018-09-26T23:36:23.115Z,98655.67
2018-09-26T23:38:50.586Z,98653.46
2018-09-26T23:41:18.045Z,98655.57
2018-09-26T23:43:45.453Z,98652.52
2018-09-26T23:46:12.898Z,98650.88
2018-09-26T23:48:40.330Z,98655.38
2018-09-26T23:51:07.750Z,98657.24
2018-09-26T23:53:35.214Z,98665.60
2018-09-26T23:56:02.704Z,98657.21
2018-09-26T23:58:31.137Z,98659.73
